Time;durP1;ratioP1;P1;durP2;ratioP2;P2;SDS_P1;SDS_P2;PMS_P1;PMS_P2;Temp;Humidity;BMP_temperature;BMP_pressure;BME280_temperature;BME280_humidity;BME280_pressure;Samples;Min_cycle;Max_cycle;Signal;HPM_P1;HPM_P2
2020/12/12 00:01:29;;;;;;;;;;;22.20;41.00;;;;;;1562604;74;1091;-57
2020/12/12 00:03:31;;;;;;;;;;;22.20;41.00;;;;;;1569700;74;681;-56
2020/12/12 00:05:33;;;;;;;;;;;22.20;40.80;;;;;;1553877;74;709;-58
2020/12/12 00:07:35;;;;;;;;;;;22.20;40.90;;;;;;1576387;74;670;-58
2020/12/12 00:09:37;;;;;;;;;;;22.20;41.10;;;;;;1575226;74;1941;-58
2020/12/12 00:11:39;;;;;;;;;;;22.20;40.90;;;;;;1565282;74;759;-57
2020/12/12 00:13:41;;;;;;;;;;;22.20;40.80;;;;;;1582995;74;681;-57
2020/12/12 00:15:43;;;;;;;;;;;22.20;40.90;;;;;;1576447;74;706;-57
2020/12/12 00:17:45;;;;;;;;;;;22.10;40.90;;;;;;1576305;74;748;-58
2020/12/12 00:19:47;;;;;;;;;;;22.20;41.00;;;;;;1578998;74;1180;-58
2020/12/12 00:21:55;;;;;;;;;;;22.20;41.00;;;;;;1576507;74;665;-58
2020/12/12 00:23:56;;;;;;;;;;;22.20;40.80;;;;;;1576515;74;717;-58
2020/12/12 00:25:58;;;;;;;;;;;22.20;41.00;;;;;;1560966;74;799;-58
2020/12/12 00:28:00;;;;;;;;;;;22.10;41.00;;;;;;1571875;74;792;-58
2020/12/12 00:30:03;;;;;;;;;;;22.20;41.10;;;;;;1555116;74;1943;-58
2020/12/12 00:32:05;;;;;;;;;;;22.10;41.00;;;;;;1576445;74;746;-57
2020/12/12 00:34:07;;;;;;;;;;;22.20;41.10;;;;;;1576363;74;682;-57
2020/12/12 00:36:09;;;;;;;;;;;22.20;41.20;;;;;;1559152;74;682;-58
2020/12/12 00:38:11;;;;;;;;;;;22.20;41.00;;;;;;1565006;74;688;-59
2020/12/12 00:40:13;;;;;;;;;;;22.20;40.90;;;;;;1576031;74;1117;-57
2020/12/12 00:42:14;;;;;;;;;;;22.10;41.00;;;;;;1576389;74;746;-57
2020/12/12 00:44:16;;;;;;;;;;;22.10;41.00;;;;;;1576485;74;716;-58
2020/12/12 00:46:18;;;;;;;;;;;22.20;41.10;;;;;;1565437;74;710;-57
2020/12/12 00:48:20;;;;;;;;;;;22.30;41.20;;;;;;1570529;74;773;-58
2020/12/12 00:50:23;;;;;;;;;;;22.10;41.00;;;;;;1575276;74;1932;-58
2020/12/12 00:52:25;;;;;;;;;;;22.20;40.90;;;;;;1576566;74;776;-57
2020/12/12 00:54:27;;;;;;;;;;;22.20;41.00;;;;;;1576444;74;678;-57
2020/12/12 00:56:29;;;;;;;;;;;22.20;41.00;;;;;;1576489;74;730;-57
2020/12/12 00:58:30;;;;;;;;;;;22.20;41.00;;;;;;1570743;74;785;-57
2020/12/12 01:00:36;;;;;;;;;;;22.20;41.00;;;;;;1575059;74;1170;-57
2020/12/12 01:02:37;;;;;;;;;;;22.10;41.00;;;;;;1575768;74;1160;-58
2020/12/12 01:04:39;;;;;;;;;;;22.20;41.00;;;;;;1576396;74;669;-59
2020/12/12 01:06:41;;;;;;;;;;;22.10;41.00;;;;;;1561855;74;755;-58
2020/12/12 01:08:43;;;;;;;;;;;22.20;41.20;;;;;;1550279;74;1939;-58
2020/12/12 01:10:45;;;;;;;;;;;22.10;41.00;;;;;;1575077;74;1166;-57
2020/12/12 01:12:47;;;;;;;;;;;22.20;41.10;;;;;;1588639;74;770;-57
2020/12/12 01:14:49;;;;;;;;;;;22.10;41.20;;;;;;1576419;74;662;-58
2020/12/12 01:16:51;;;;;;;;;;;22.10;41.30;;;;;;1569511;74;670;-57
2020/12/12 01:18:53;;;;;;;;;;;22.10;41.30;;;;;;1549576;74;694;-58
2020/12/12 01:20:54;;;;;;;;;;;22.10;41.30;;;;;;1582028;74;1151;-57
2020/12/12 01:22:56;;;;;;;;;;;22.10;41.40;;;;;;1576439;74;659;-57
2020/12/12 01:24:58;;;;;;;;;;;22.20;41.50;;;;;;1569711;74;676;-58
2020/12/12 01:27:00;;;;;;;;;;;22.10;41.50;;;;;;1575425;74;971;-58
2020/12/12 01:29:02;;;;;;;;;;;22.20;41.60;;;;;;1587782;74;1914;-58
2020/12/12 01:31:04;;;;;;;;;;;22.10;41.40;;;;;;1558777;74;1172;-59
2020/12/12 01:33:06;;;;;;;;;;;22.10;41.50;;;;;;1548482;74;750;-58
2020/12/12 01:35:07;;;;;;;;;;;22.20;41.50;;;;;;1565704;74;820;-57
2020/12/12 01:37:09;;;;;;;;;;;22.10;41.50;;;;;;1599360;74;682;-57
2020/12/12 01:39:11;;;;;;;;;;;22.20;41.50;;;;;;1588437;74;736;-57
2020/12/12 01:41:13;;;;;;;;;;;22.20;41.50;;;;;;1576032;74;1128;-57
2020/12/12 01:43:15;;;;;;;;;;;22.10;41.40;;;;;;1590880;74;699;-57
2020/12/12 01:45:17;;;;;;;;;;;22.10;41.50;;;;;;1570903;74;737;-56
2020/12/12 01:47:19;;;;;;;;;;;22.10;41.80;;;;;;1576108;74;671;-58
2020/12/12 01:49:21;;;;;;;;;;;22.10;41.80;;;;;;1576297;74;1930;-58
2020/12/12 01:51:27;;;;;;;;;;;22.20;42.20;;;;;;1576239;74;1166;-57
2020/12/12 01:53:26;;;;;;;;;;;22.10;42.00;;;;;;1562475;74;1262;-57
2020/12/12 01:55:28;;;;;;;;;;;22.10;41.90;;;;;;1575294;74;681;-57
2020/12/12 01:57:30;;;;;;;;;;;22.10;42.00;;;;;;1576048;74;679;-57
2020/12/12 01:59:32;;;;;;;;;;;22.10;42.00;;;;;;1576168;74;663;-59
2020/12/12 02:01:34;;;;;;;;;;;22.00;41.80;;;;;;1576330;74;707;-57
2020/12/12 02:03:36;;;;;;;;;;;22.10;42.10;;;;;;1554825;74;699;-57
2020/12/12 02:05:45;;;;;;;;;;;22.10;41.90;;;;;;1574591;74;697;-57
2020/12/12 02:07:46;;;;;;;;;;;22.10;41.90;;;;;;1575819;74;701;-57
2020/12/12 02:09:49;;;;;;;;;;;22.10;41.70;;;;;;1576167;74;1923;-57
2020/12/12 02:11:50;;;;;;;;;;;22.10;41.70;;;;;;1576231;74;722;-56
2020/12/12 02:13:53;;;;;;;;;;;22.20;41.60;;;;;;1560418;74;738;-58
2020/12/12 02:15:55;;;;;;;;;;;22.20;41.60;;;;;;1543947;75;728;-57
2020/12/12 02:17:57;;;;;;;;;;;22.20;41.60;;;;;;1575822;74;669;-58
2020/12/12 02:19:58;;;;;;;;;;;22.20;41.50;;;;;;1574384;74;1130;-58
2020/12/12 02:22:01;;;;;;;;;;;22.20;41.70;;;;;;1595678;74;718;-58
2020/12/12 02:24:02;;;;;;;;;;;22.10;41.80;;;;;;1582883;74;666;-58
2020/12/12 02:26:05;;;;;;;;;;;22.10;41.80;;;;;;1594997;74;713;-57
2020/12/12 02:28:11;;;;;;;;;;;22.20;41.70;;;;;;1591238;74;696;-58
2020/12/12 02:30:10;;;;;;;;;;;22.20;41.70;;;;;;1556447;74;1929;-57
2020/12/12 02:32:12;;;;;;;;;;;22.10;41.70;;;;;;1568638;74;634;-58
2020/12/12 02:34:14;;;;;;;;;;;22.20;41.80;;;;;;1591047;74;647;-57
2020/12/12 02:36:16;;;;;;;;;;;22.10;41.70;;;;;;1591288;74;652;-59
2020/12/12 02:38:17;;;;;;;;;;;22.20;41.70;;;;;;1581400;74;694;-58
2020/12/12 02:40:19;;;;;;;;;;;22.20;41.70;;;;;;1576161;74;1149;-58
2020/12/12 02:42:21;;;;;;;;;;;22.20;41.70;;;;;;1570554;74;745;-58
2020/12/12 02:44:23;;;;;;;;;;;22.20;41.80;;;;;;1591406;74;759;-58
2020/12/12 02:46:25;;;;;;;;;;;22.20;41.70;;;;;;1591355;74;742;-58
2020/12/12 02:48:27;;;;;;;;;;;22.20;41.80;;;;;;1589849;74;718;-58
2020/12/12 02:50:29;;;;;;;;;;;22.20;41.80;;;;;;1559627;75;1931;-57
2020/12/12 02:52:30;;;;;;;;;;;22.20;41.90;;;;;;1556120;75;696;-59
2020/12/12 02:54:32;;;;;;;;;;;22.20;41.80;;;;;;1555880;75;757;-57
2020/12/12 02:56:34;;;;;;;;;;;22.10;41.80;;;;;;1555190;75;702;-57
2020/12/12 02:58:36;;;;;;;;;;;22.20;41.80;;;;;;1527832;77;696;-57
2020/12/12 03:00:38;;;;;;;;;;;22.20;41.70;;;;;;1515657;77;1129;-57
2020/12/12 03:02:40;;;;;;;;;;;22.10;41.80;;;;;;1528536;77;729;-57
2020/12/12 03:04:42;;;;;;;;;;;22.20;41.80;;;;;;1547629;77;709;-58
2020/12/12 03:06:46;;;;;;;;;;;22.20;41.80;;;;;;1547838;77;733;-57
2020/12/12 03:08:48;;;;;;;;;;;22.10;41.70;;;;;;1555843;75;868;-59
2020/12/12 03:10:50;;;;;;;;;;;22.10;41.70;;;;;;1523867;75;1945;-59
2020/12/12 03:12:52;;;;;;;;;;;22.10;41.80;;;;;;1532689;75;657;-59
2020/12/12 03:14:54;;;;;;;;;;;22.20;41.80;;;;;;1506221;76;638;-59
2020/12/12 03:16:56;;;;;;;;;;;22.20;41.70;;;;;;1507095;76;718;-59
2020/12/12 03:18:58;;;;;;;;;;;22.10;41.70;;;;;;1512188;76;673;-59
2020/12/12 03:21:00;;;;;;;;;;;22.10;41.60;;;;;;1511247;76;1129;-59
2020/12/12 03:23:02;;;;;;;;;;;22.10;41.60;;;;;;1519973;75;776;-58
2020/12/12 03:25:04;;;;;;;;;;;22.10;41.60;;;;;;1503862;76;758;-59
2020/12/12 03:27:06;;;;;;;;;;;22.20;41.60;;;;;;1507682;76;738;-58
2020/12/12 03:29:07;;;;;;;;;;;22.10;41.60;;;;;;1505758;77;766;-59
2020/12/12 03:31:09;;;;;;;;;;;22.20;41.60;;;;;;1504442;76;1949;-60
2020/12/12 03:33:11;;;;;;;;;;;22.20;41.60;;;;;;1505165;76;797;-58
2020/12/12 03:35:13;;;;;;;;;;;22.10;41.60;;;;;;1504035;76;737;-57
2020/12/12 03:37:15;;;;;;;;;;;22.20;41.60;;;;;;1504414;76;797;-58
2020/12/12 03:39:17;;;;;;;;;;;22.10;41.60;;;;;;1507240;76;801;-58
2020/12/12 03:41:19;;;;;;;;;;;22.10;41.70;;;;;;1506906;76;1133;-58
2020/12/12 03:43:22;;;;;;;;;;;22.20;41.70;;;;;;1509242;76;699;-58
2020/12/12 03:45:24;;;;;;;;;;;22.10;41.70;;;;;;1504636;77;759;-58
2020/12/12 03:47:26;;;;;;;;;;;22.10;41.60;;;;;;1507007;76;740;-59
2020/12/12 03:49:28;;;;;;;;;;;22.00;41.70;;;;;;1505770;76;688;-59
2020/12/12 03:51:30;;;;;;;;;;;22.00;41.70;;;;;;1505089;76;1962;-59
2020/12/12 03:53:32;;;;;;;;;;;22.00;41.60;;;;;;1505750;76;725;-59
2020/12/12 03:55:34;;;;;;;;;;;22.00;41.60;;;;;;1504072;76;642;-59
2020/12/12 03:57:36;;;;;;;;;;;22.00;41.60;;;;;;1506779;76;728;-58
2020/12/12 03:59:38;;;;;;;;;;;22.00;41.50;;;;;;1507789;76;1149;-59
2020/12/12 04:01:39;;;;;;;;;;;21.90;41.30;;;;;;1523917;75;708;-59
2020/12/12 04:03:41;;;;;;;;;;;21.90;41.20;;;;;;1505613;76;727;-59
2020/12/12 04:05:44;;;;;;;;;;;22.00;41.30;;;;;;1504381;76;637;-56
2020/12/12 04:07:46;;;;;;;;;;;21.90;41.30;;;;;;1506561;76;816;-57
2020/12/12 04:09:48;;;;;;;;;;;22.00;41.30;;;;;;1506189;77;1950;-56
2020/12/12 04:11:50;;;;;;;;;;;21.90;41.10;;;;;;1507218;77;812;-56
2020/12/12 04:13:51;;;;;;;;;;;21.90;41.10;;;;;;1506790;77;753;-57
2020/12/12 04:15:53;;;;;;;;;;;22.00;41.00;;;;;;1505547;77;764;-56
2020/12/12 04:17:55;;;;;;;;;;;21.60;40.70;;;;;;1503952;77;794;-57
2020/12/12 04:19:57;;;;;;;;;;;21.90;41.00;;;;;;1503869;76;1171;-57
2020/12/12 04:21:59;;;;;;;;;;;21.90;40.90;;;;;;1507498;77;713;-57
2020/12/12 04:24:01;;;;;;;;;;;21.90;40.70;;;;;;1507128;77;694;-56
2020/12/12 04:26:03;;;;;;;;;;;21.90;40.70;;;;;;1506845;77;776;-55
2020/12/12 04:28:05;;;;;;;;;;;21.90;40.70;;;;;;1505845;77;724;-56
2020/12/12 04:30:07;;;;;;;;;;;22.00;40.60;;;;;;1507993;77;1942;-56
2020/12/12 04:32:09;;;;;;;;;;;22.00;40.50;;;;;;1507691;77;702;-55
2020/12/12 04:34:11;;;;;;;;;;;21.90;40.50;;;;;;1507972;77;734;-57
2020/12/12 04:36:13;;;;;;;;;;;22.00;40.40;;;;;;1506817;77;725;-58
2020/12/12 04:38:15;;;;;;;;;;;21.90;40.40;;;;;;1508805;77;711;-58
2020/12/12 04:40:17;;;;;;;;;;;22.00;40.30;;;;;;1520902;75;1138;-57
2020/12/12 04:42:19;;;;;;;;;;;21.90;40.50;;;;;;1508628;76;885;-57
2020/12/12 04:44:21;;;;;;;;;;;21.90;40.50;;;;;;1504438;76;691;-56
2020/12/12 04:46:24;;;;;;;;;;;21.90;40.40;;;;;;1507781;77;628;-57
2020/12/12 04:48:26;;;;;;;;;;;21.90;40.40;;;;;;1509047;76;717;-57
2020/12/12 04:50:31;;;;;;;;;;;22.00;40.30;;;;;;1523606;75;1953;-58
2020/12/12 04:52:32;;;;;;;;;;;22.00;40.40;;;;;;1521559;75;737;-56
2020/12/12 04:54:35;;;;;;;;;;;22.00;40.30;;;;;;1504906;77;666;-58
2020/12/12 04:56:36;;;;;;;;;;;21.90;40.10;;;;;;1519653;75;803;-56
2020/12/12 04:58:38;;;;;;;;;;;22.00;40.20;;;;;;1525021;75;728;-58
2020/12/12 05:00:41;;;;;;;;;;;22.00;40.10;;;;;;1528901;75;1193;-58
2020/12/12 05:02:43;;;;;;;;;;;22.00;40.10;;;;;;1521580;75;702;-57
2020/12/12 05:04:45;;;;;;;;;;;21.90;40.00;;;;;;1520950;75;810;-57
2020/12/12 05:06:47;;;;;;;;;;;22.00;40.00;;;;;;1518925;75;699;-57
2020/12/12 05:08:49;;;;;;;;;;;22.00;40.00;;;;;;1521365;75;686;-56
2020/12/12 05:10:51;;;;;;;;;;;22.00;40.00;;;;;;1520087;75;1944;-57
2020/12/12 05:12:53;;;;;;;;;;;22.00;40.10;;;;;;1531673;75;714;-56
2020/12/12 05:14:55;;;;;;;;;;;22.00;40.00;;;;;;1522403;75;743;-58
2020/12/12 05:16:58;;;;;;;;;;;22.00;39.90;;;;;;1523465;75;688;-57
2020/12/12 05:18:59;;;;;;;;;;;22.00;40.00;;;;;;1523835;75;719;-56
2020/12/12 05:21:01;;;;;;;;;;;22.00;39.80;;;;;;1479027;78;1148;-57
2020/12/12 05:23:05;;;;;;;;;;;21.90;40.00;;;;;;1552672;74;786;-58
2020/12/12 05:25:07;;;;;;;;;;;22.00;39.80;;;;;;1541372;74;1054;-57
2020/12/12 05:27:09;;;;;;;;;;;22.00;39.90;;;;;;1551148;74;719;-57
2020/12/12 05:29:12;;;;;;;;;;;22.00;39.80;;;;;;1565936;74;673;-57
2020/12/12 05:31:14;;;;;;;;;;;22.00;39.70;;;;;;1550170;74;1945;-57
2020/12/12 05:33:17;;;;;;;;;;;22.10;39.90;;;;;;1553810;74;816;-58
2020/12/12 05:35:18;;;;;;;;;;;22.00;39.80;;;;;;1551476;74;795;-56
2020/12/12 05:37:20;;;;;;;;;;;22.00;39.80;;;;;;1552643;74;634;-56
2020/12/12 05:39:22;;;;;;;;;;;22.00;39.70;;;;;;1550929;74;721;-57
2020/12/12 05:41:26;;;;;;;;;;;22.10;39.70;;;;;;1551462;74;1060;-56
2020/12/12 05:43:34;;;;;;;;;;;22.10;39.80;;;;;;1549679;74;1085;-56
2020/12/12 05:45:36;;;;;;;;;;;22.10;39.70;;;;;;1552414;74;1801;-58
2020/12/12 05:47:39;;;;;;;;;;;22.10;40.00;;;;;;1552306;74;1894;-58
2020/12/12 05:49:43;;;;;;;;;;;22.10;39.70;;;;;;1552997;74;1117;-58
2020/12/12 05:51:45;;;;;;;;;;;22.10;39.70;;;;;;1557183;74;1917;-57
2020/12/12 05:53:47;;;;;;;;;;;22.00;39.60;;;;;;1550563;74;692;-57
2020/12/12 05:55:49;;;;;;;;;;;22.00;39.60;;;;;;1552848;74;701;-56
2020/12/12 05:57:52;;;;;;;;;;;22.00;39.70;;;;;;1551787;74;778;-56
2020/12/12 05:59:55;;;;;;;;;;;22.00;39.50;;;;;;1567877;74;1152;-57
2020/12/12 06:01:56;;;;;;;;;;;22.00;39.50;;;;;;1580831;74;687;-57
2020/12/12 06:04:00;;;;;;;;;;;22.10;39.60;;;;;;1552016;75;703;-58
2020/12/12 06:06:03;;;;;;;;;;;22.00;39.50;;;;;;1536342;75;719;-57
2020/12/12 06:08:06;;;;;;;;;;;22.00;39.60;;;;;;1508138;76;809;-56
2020/12/12 06:10:08;;;;;;;;;;;22.10;39.60;;;;;;1507568;76;1084;-57
2020/12/12 06:12:09;;;;;;;;;;;22.00;39.70;;;;;;1505928;76;1940;-57
2020/12/12 06:14:11;;;;;;;;;;;22.10;39.50;;;;;;1496060;77;758;-59
2020/12/12 06:16:13;;;;;;;;;;;22.10;39.60;;;;;;1505039;76;665;-57
2020/12/12 06:18:22;;;;;;;;;;;22.10;39.70;;;;;;1503721;76;714;-57
2020/12/12 06:20:24;;;;;;;;;;;22.10;39.70;;;;;;1509538;76;1220;-57
2020/12/12 06:22:26;;;;;;;;;;;22.00;39.70;;;;;;1508623;76;784;-57
2020/12/12 06:24:28;;;;;;;;;;;22.00;39.60;;;;;;1525055;75;715;-57
2020/12/12 06:26:34;;;;;;;;;;;22.10;39.60;;;;;;1508260;76;711;-59
2020/12/12 06:28:42;;;;;;;;;;;22.00;39.70;;;;;;1509338;76;618;-58
2020/12/12 06:30:44;;;;;;;;;;;22.00;39.60;;;;;;1507093;76;1930;-58
2020/12/12 06:32:46;;;;;;;;;;;22.10;39.70;;;;;;1508452;76;739;-58
2020/12/12 06:34:49;;;;;;;;;;;22.10;39.60;;;;;;1508040;76;697;-57
2020/12/12 06:36:50;;;;;;;;;;;22.20;39.60;;;;;;1521363;75;686;-59
2020/12/12 06:38:54;;;;;;;;;;;22.20;39.60;;;;;;1505072;76;706;-58
2020/12/12 06:40:57;;;;;;;;;;;22.10;39.40;;;;;;1505438;76;1517;-57
2020/12/12 06:42:59;;;;;;;;;;;22.10;39.60;;;;;;1505088;76;781;-58
2020/12/12 06:45:02;;;;;;;;;;;22.10;39.50;;;;;;1506197;76;720;-56
2020/12/12 06:47:05;;;;;;;;;;;22.20;39.60;;;;;;1517572;76;788;-58
2020/12/12 06:49:10;;;;;;;;;;;22.20;39.50;;;;;;1511263;76;1722;-56
2020/12/12 06:51:12;;;;;;;;;;;22.10;39.40;;;;;;1511807;76;1939;-56
2020/12/12 06:53:17;;;;;;;;;;;22.20;39.50;;;;;;1512528;76;705;-58
2020/12/12 06:55:20;;;;;;;;;;;22.10;39.40;;;;;;1515549;76;757;-56
2020/12/12 06:57:26;;;;;;;;;;;22.20;39.60;;;;;;1512249;76;809;-57
2020/12/12 06:59:34;;;;;;;;;;;22.20;39.40;;;;;;1511528;76;1989;-58
2020/12/12 07:01:36;;;;;;;;;;;22.10;39.20;;;;;;1511151;76;649;-57
2020/12/12 07:03:37;;;;;;;;;;;22.20;39.40;;;;;;1518199;76;755;-58
2020/12/12 07:05:39;;;;;;;;;;;22.10;39.30;;;;;;1526362;76;703;-58
2020/12/12 07:07:41;;;;;;;;;;;22.20;39.50;;;;;;1514225;76;713;-58
2020/12/12 07:09:43;;;;;;;;;;;22.10;39.40;;;;;;1492912;77;1099;-57
2020/12/12 07:11:45;;;;;;;;;;;22.10;39.40;;;;;;1512884;76;1934;-57
2020/12/12 07:13:47;;;;;;;;;;;22.10;39.40;;;;;;1492782;77;1203;-58
2020/12/12 07:15:49;;;;;;;;;;;22.20;39.30;;;;;;1511451;76;756;-58
2020/12/12 07:17:50;;;;;;;;;;;22.20;39.40;;;;;;1509538;76;691;-58
2020/12/12 07:19:52;;;;;;;;;;;22.10;39.30;;;;;;1509144;76;1152;-58
2020/12/12 07:21:54;;;;;;;;;;;22.10;39.60;;;;;;1518193;76;631;-57
2020/12/12 07:23:56;;;;;;;;;;;22.10;39.40;;;;;;1495935;77;909;-57
2020/12/12 07:25:58;;;;;;;;;;;22.20;39.40;;;;;;1512156;76;836;-58
2020/12/12 07:28:00;;;;;;;;;;;22.20;39.40;;;;;;1534029;76;708;-57
2020/12/12 07:30:02;;;;;;;;;;;22.30;39.30;;;;;;1534043;76;1142;-56
2020/12/12 07:32:04;;;;;;;;;;;22.30;39.30;;;;;;1530757;76;1928;-59
2020/12/12 07:34:06;;;;;;;;;;;22.30;39.30;;;;;;1522519;76;791;-57
2020/12/12 07:36:08;;;;;;;;;;;22.30;39.20;;;;;;1534322;76;658;-59
2020/12/12 07:38:10;;;;;;;;;;;22.30;39.50;;;;;;1527948;76;686;-57
2020/12/12 07:40:12;;;;;;;;;;;22.20;39.70;;;;;;1533280;76;1192;-58
2020/12/12 07:42:14;;;;;;;;;;;22.30;40.10;;;;;;1537529;76;708;-57
2020/12/12 07:44:16;;;;;;;;;;;22.10;40.30;;;;;;1546261;75;737;-56
2020/12/12 07:46:18;;;;;;;;;;;22.10;40.50;;;;;;1533961;76;730;-57
2020/12/12 07:48:20;;;;;;;;;;;22.00;40.50;;;;;;1532565;76;684;-57
2020/12/12 07:50:22;;;;;;;;;;;22.10;40.80;;;;;;1513682;76;1132;-58
2020/12/12 07:52:24;;;;;;;;;;;22.00;41.00;;;;;;1501309;77;1937;-57
2020/12/12 07:54:28;;;;;;;;;;;22.00;41.10;;;;;;1518565;76;788;-57
2020/12/12 07:56:30;;;;;;;;;;;22.00;41.00;;;;;;1533888;76;1880;-59
2020/12/12 07:58:35;;;;;;;;;;;22.00;41.00;;;;;;1528823;76;730;-57
2020/12/12 08:00:36;;;;;;;;;;;22.00;41.00;;;;;;1525545;76;1687;-58
2020/12/12 08:02:38;;;;;;;;;;;22.00;41.00;;;;;;1531298;76;700;-57
2020/12/12 08:04:39;;;;;;;;;;;22.00;40.80;;;;;;1541966;76;786;-57
2020/12/12 08:06:41;;;;;;;;;;;22.00;40.90;;;;;;1528091;76;758;-58
2020/12/12 08:08:43;;;;;;;;;;;22.10;40.80;;;;;;1516483;76;808;-58
2020/12/12 08:10:45;;;;;;;;;;;22.00;40.40;;;;;;1509424;77;1154;-57
2020/12/12 08:12:47;;;;;;;;;;;22.10;40.50;;;;;;1547160;76;1935;-57
2020/12/12 08:14:49;;;;;;;;;;;22.20;40.40;;;;;;1542996;76;752;-57
2020/12/12 08:17:08;;;;;;;;;;;22.20;40.20;;;;;;1534710;76;703;-58
2020/12/12 08:19:04;;;;;;;;;;;22.20;40.10;;;;;;1520493;76;1377;-57
2020/12/12 08:21:11;;;;;;;;;;;22.20;39.90;;;;;;1533807;76;1505;-56
2020/12/12 08:23:14;;;;;;;;;;;22.20;39.80;;;;;;1531863;76;1807;-56
2020/12/12 08:25:16;;;;;;;;;;;22.20;39.80;;;;;;1529799;76;705;-56
2020/12/12 08:27:19;;;;;;;;;;;22.30;40.40;;;;;;1512714;77;1105;-56
2020/12/12 08:29:21;;;;;;;;;;;22.20;40.00;;;;;;1533680;76;1918;-58
2020/12/12 08:31:23;;;;;;;;;;;22.30;40.00;;;;;;1536264;76;1948;-56
2020/12/12 08:33:25;;;;;;;;;;;22.30;40.20;;;;;;1533437;76;722;-58
2020/12/12 08:35:27;;;;;;;;;;;22.30;40.00;;;;;;1517970;76;731;-58
2020/12/12 08:37:29;;;;;;;;;;;22.30;40.00;;;;;;1528734;76;706;-57
2020/12/12 08:39:31;;;;;;;;;;;22.30;39.80;;;;;;1526192;76;729;-56
2020/12/12 08:41:34;;;;;;;;;;;22.30;39.70;;;;;;1520285;76;1178;-56
2020/12/12 08:43:38;;;;;;;;;;;22.30;39.80;;;;;;1533953;76;678;-58
2020/12/12 08:45:41;;;;;;;;;;;22.30;39.70;;;;;;1530006;76;805;-57
2020/12/12 08:47:43;;;;;;;;;;;22.30;39.90;;;;;;1533900;76;675;-58
2020/12/12 08:49:46;;;;;;;;;;;22.30;39.70;;;;;;1534072;76;1170;-58
2020/12/12 08:51:51;;;;;;;;;;;22.30;39.70;;;;;;1532539;76;1932;-56
2020/12/12 08:53:53;;;;;;;;;;;22.30;39.70;;;;;;1512278;76;807;-57
2020/12/12 08:56:06;;;;;;;;;;;22.30;39.60;;;;;;1513071;76;777;-57
2020/12/12 08:58:08;;;;;;;;;;;22.30;39.60;;;;;;1525311;76;691;-57
2020/12/12 09:00:10;;;;;;;;;;;22.30;39.50;;;;;;1533735;76;1163;-57
2020/12/12 09:02:18;;;;;;;;;;;22.30;39.50;;;;;;1531382;76;697;-57
2020/12/12 09:04:22;;;;;;;;;;;22.30;39.40;;;;;;1518129;76;741;-57
2020/12/12 09:06:25;;;;;;;;;;;22.30;39.30;;;;;;1525147;76;752;-58
2020/12/12 09:08:27;;;;;;;;;;;22.30;39.30;;;;;;1522128;76;720;-58
2020/12/12 09:10:29;;;;;;;;;;;22.40;39.20;;;;;;1525503;76;1161;-57
2020/12/12 09:12:32;;;;;;;;;;;22.30;39.30;;;;;;1535337;76;1924;-57
2020/12/12 09:14:36;;;;;;;;;;;22.30;39.20;;;;;;1521835;76;1713;-58
2020/12/12 09:16:38;;;;;;;;;;;22.40;39.00;;;;;;1522645;76;1711;-58
2020/12/12 09:18:44;;;;;;;;;;;22.30;39.20;;;;;;1514188;76;727;-57
2020/12/12 09:20:45;;;;;;;;;;;22.30;39.10;;;;;;1509702;76;1141;-57
2020/12/12 09:22:47;;;;;;;;;;;22.30;39.20;;;;;;1512089;76;662;-57
2020/12/12 09:24:49;;;;;;;;;;;22.30;39.00;;;;;;1519141;76;656;-58
2020/12/12 09:26:52;;;;;;;;;;;22.30;38.90;;;;;;1531435;76;732;-59
2020/12/12 09:28:54;;;;;;;;;;;22.30;39.10;;;;;;1527771;76;643;-57
2020/12/12 09:30:55;;;;;;;;;;;22.30;39.00;;;;;;1533556;76;1126;-58
2020/12/12 09:32:57;;;;;;;;;;;22.40;39.10;;;;;;1534762;76;1932;-58
2020/12/12 09:34:59;;;;;;;;;;;22.30;39.00;;;;;;1516862;76;747;-59
2020/12/12 09:37:01;;;;;;;;;;;22.30;38.90;;;;;;1534841;76;687;-58
2020/12/12 09:39:03;;;;;;;;;;;22.30;39.00;;;;;;1534488;76;738;-59
2020/12/12 09:41:05;;;;;;;;;;;22.30;38.90;;;;;;1534635;76;1024;-59
2020/12/12 09:43:07;;;;;;;;;;;22.30;38.90;;;;;;1521257;76;757;-57
2020/12/12 09:45:09;;;;;;;;;;;22.30;38.90;;;;;;1533424;76;771;-57
2020/12/12 09:47:11;;;;;;;;;;;22.30;38.80;;;;;;1534605;76;761;-58
2020/12/12 09:49:13;;;;;;;;;;;22.30;38.80;;;;;;1527846;76;731;-57
2020/12/12 09:51:16;;;;;;;;;;;22.30;38.70;;;;;;1518676;76;1162;-57
2020/12/12 09:53:17;;;;;;;;;;;22.30;38.90;;;;;;1529653;76;1905;-57
2020/12/12 09:55:19;;;;;;;;;;;22.30;38.70;;;;;;1531668;76;952;-58
2020/12/12 09:57:23;;;;;;;;;;;22.40;38.90;;;;;;1534271;76;772;-56
2020/12/12 09:59:25;;;;;;;;;;;22.30;38.80;;;;;;1537230;76;1744;-57
2020/12/12 10:01:26;;;;;;;;;;;22.30;38.70;;;;;;1530676;76;1167;-57
2020/12/12 10:03:28;;;;;;;;;;;22.30;38.80;;;;;;1518743;76;754;-58
2020/12/12 10:05:30;;;;;;;;;;;22.30;38.90;;;;;;1522523;76;655;-57
2020/12/12 10:07:32;;;;;;;;;;;22.20;39.10;;;;;;1516802;76;712;-57
2020/12/12 10:09:34;;;;;;;;;;;22.20;39.40;;;;;;1517224;76;711;-57
2020/12/12 10:11:36;;;;;;;;;;;22.10;39.60;;;;;;1516095;76;737;-55
2020/12/12 10:13:38;;;;;;;;;;;22.00;39.70;;;;;;1520378;76;1898;-55
2020/12/12 10:15:40;;;;;;;;;;;22.10;40.00;;;;;;1525308;76;688;-57
2020/12/12 10:17:42;;;;;;;;;;;22.00;40.20;;;;;;1525408;76;886;-56
2020/12/12 10:19:44;;;;;;;;;;;22.00;40.20;;;;;;1516409;76;1122;-56
2020/12/12 10:21:45;;;;;;;;;;;22.00;40.20;;;;;;1515412;76;963;-56
2020/12/12 10:23:47;;;;;;;;;;;22.10;40.50;;;;;;1515048;76;738;-61
2020/12/12 10:25:49;;;;;;;;;;;22.00;40.50;;;;;;1521190;76;737;-55
2020/12/12 10:27:51;;;;;;;;;;;22.00;40.70;;;;;;1514557;76;742;-56
2020/12/12 10:29:53;;;;;;;;;;;22.00;40.70;;;;;;1518588;76;1153;-57
2020/12/12 10:31:55;;;;;;;;;;;22.00;40.90;;;;;;1515532;76;730;-55
2020/12/12 10:33:57;;;;;;;;;;;21.90;41.00;;;;;;1517365;76;1957;-57
2020/12/12 10:35:58;;;;;;;;;;;21.90;41.10;;;;;;1514979;76;723;-55
2020/12/12 10:38:00;;;;;;;;;;;22.00;41.10;;;;;;1516126;76;671;-57
2020/12/12 10:40:11;;;;;;;;;;;22.00;41.20;;;;;;1516989;76;1196;-56
2020/12/12 10:42:09;;;;;;;;;;;21.90;41.20;;;;;;1520974;76;1561;-57
2020/12/12 10:44:11;;;;;;;;;;;21.90;41.30;;;;;;1524568;76;807;-56
2020/12/12 10:46:13;;;;;;;;;;;21.90;41.40;;;;;;1535125;76;836;-57
2020/12/12 10:48:15;;;;;;;;;;;22.00;41.40;;;;;;1517921;76;677;-58
2020/12/12 10:50:17;;;;;;;;;;;21.90;41.40;;;;;;1517687;76;1165;-56
2020/12/12 10:52:19;;;;;;;;;;;21.90;41.50;;;;;;1519007;76;1911;-57
2020/12/12 10:54:21;;;;;;;;;;;22.00;41.50;;;;;;1514371;76;776;-57
2020/12/12 10:56:22;;;;;;;;;;;22.00;41.60;;;;;;1513769;76;744;-58
2020/12/12 10:58:24;;;;;;;;;;;22.00;41.60;;;;;;1514105;76;755;-57
2020/12/12 11:00:27;;;;;;;;;;;22.00;41.60;;;;;;1518450;76;1222;-56
2020/12/12 11:02:30;;;;;;;;;;;22.00;41.60;;;;;;1521533;76;769;-57
2020/12/12 11:04:32;;;;;;;;;;;22.00;41.60;;;;;;1520580;76;699;-59
2020/12/12 11:06:34;;;;;;;;;;;22.00;41.40;;;;;;1521524;76;716;-57
2020/12/12 11:08:36;;;;;;;;;;;22.00;41.10;;;;;;1518924;76;706;-58
2020/12/12 11:10:38;;;;;;;;;;;22.10;41.00;;;;;;1519211;76;1102;-58
2020/12/12 11:12:40;;;;;;;;;;;22.10;40.80;;;;;;1516807;76;1930;-58
2020/12/12 11:14:42;;;;;;;;;;;22.20;40.40;;;;;;1521066;76;687;-58
2020/12/12 11:16:44;;;;;;;;;;;22.20;40.50;;;;;;1525114;76;790;-55
2020/12/12 11:18:51;;;;;;;;;;;22.20;40.30;;;;;;1520190;76;787;-57
2020/12/12 11:20:50;;;;;;;;;;;22.10;40.20;;;;;;1514929;76;1590;-58
2020/12/12 11:22:55;;;;;;;;;;;22.20;40.10;;;;;;1531526;76;779;-58
2020/12/12 11:24:55;;;;;;;;;;;22.30;40.00;;;;;;1525025;76;1603;-58
2020/12/12 11:26:57;;;;;;;;;;;22.30;40.00;;;;;;1527193;76;680;-57
2020/12/12 11:28:59;;;;;;;;;;;22.30;39.80;;;;;;1529260;76;819;-58
2020/12/12 11:31:01;;;;;;;;;;;22.30;39.80;;;;;;1532405;76;1144;-56
2020/12/12 11:33:04;;;;;;;;;;;22.30;39.70;;;;;;1516546;76;1905;-58
2020/12/12 11:35:13;;;;;;;;;;;22.20;39.60;;;;;;1521530;76;623;-56
2020/12/12 11:39:33;;;;;;;;;;;22.30;39.60;;;;;;1517488;76;839;-58
2020/12/12 11:43:54;;;;;;;;;;;22.30;39.50;;;;;;1519939;76;734;-56
2020/12/12 11:47:45;;;;;;;;;;;22.20;39.80;;;;;;1533543;76;852;-58
2020/12/12 11:49:47;;;;;;;;;;;22.30;40.20;;;;;;1540744;76;1163;-58
2020/12/12 11:51:49;;;;;;;;;;;22.20;40.40;;;;;;1531175;76;669;-57
2020/12/12 11:53:51;;;;;;;;;;;22.10;40.50;;;;;;1525654;76;1934;-58
2020/12/12 11:55:52;;;;;;;;;;;22.10;40.70;;;;;;1536768;76;725;-58
2020/12/12 11:57:54;;;;;;;;;;;22.10;40.80;;;;;;1544247;76;790;-58
2020/12/12 11:59:58;;;;;;;;;;;22.10;40.90;;;;;;1526312;76;1242;-59
2020/12/12 12:02:00;;;;;;;;;;;22.10;41.00;;;;;;1518996;76;1788;-58
2020/12/12 12:04:02;;;;;;;;;;;22.10;41.00;;;;;;1514512;76;725;-57
2020/12/12 12:06:03;;;;;;;;;;;22.10;41.00;;;;;;1517637;76;794;-58
2020/12/12 12:08:12;;;;;;;;;;;22.10;40.90;;;;;;1497550;77;1135;-58
2020/12/12 12:12:25;;;;;;;;;;;22.20;40.30;;;;;;1531608;76;868;-57
2020/12/12 12:14:26;;;;;;;;;;;22.20;40.20;;;;;;1533773;76;1939;-58
2020/12/12 12:16:35;;;;;;;;;;;22.20;40.00;;;;;;1536453;76;688;-57
2020/12/12 12:18:32;;;;;;;;;;;22.20;40.00;;;;;;1531110;76;1620;-58